Time;durP1;ratioP1;P1;durP2;ratioP2;P2;SDS_P1;SDS_P2;PMS_P1;PMS_P2;Temp;Humidity;BMP_temperature;BMP_pressure;BME280_temperature;BME280_humidity;BME280_pressure;Samples;Min_cycle;Max_cycle;Signal;HPM_P1;HPM_P2
2022/05/15 00:01:20;;;;;;;17.33;4.65;;;;;;;;;;5064991;28;20246;-64
2022/05/15 00:03:46;;;;;;;26.55;5.55;;;;;;;;;;5068148;28;20184;-64
2022/05/15 00:06:11;;;;;;;20.20;4.68;;;;;;;;;;5069048;28;20543;-64
2022/05/15 00:08:38;;;;;;;21.23;4.75;;;;;;;;;;5069642;28;20184;-64
2022/05/15 00:11:04;;;;;;;25.33;4.78;;;;;;;;;;5067435;28;20618;-64
2022/05/15 00:13:30;;;;;;;20.88;5.22;;;;;;;;;;5068748;28;20173;-64
2022/05/15 00:15:56;;;;;;;21.27;4.85;;;;;;;;;;5067638;28;20582;-64
2022/05/15 00:18:22;;;;;;;19.50;4.97;;;;;;;;;;5067825;28;20184;-65
2022/05/15 00:20:49;;;;;;;23.73;5.32;;;;;;;;;;5066923;28;20196;-65
2022/05/15 00:23:15;;;;;;;20.65;6.13;;;;;;;;;;5063511;28;20187;-65
2022/05/15 00:25:42;;;;;;;23.95;5.78;;;;;;;;;;5066471;28;20221;-65
2022/05/15 00:28:08;;;;;;;23.17;5.85;;;;;;;;;;5059064;28;20177;-65
2022/05/15 00:30:35;;;;;;;28.13;6.80;;;;;;;;;;5064556;28;20234;-65
2022/05/15 00:33:01;;;;;;;20.75;5.22;;;;;;;;;;5064609;28;20199;-65
2022/05/15 00:35:27;;;;;;;26.08;5.93;;;;;;;;;;5067084;28;20165;-67
2022/05/15 00:37:52;;;;;;;24.48;5.95;;;;;;;;;;5063150;28;20219;-65
2022/05/15 00:40:20;;;;;;;23.90;6.32;;;;;;;;;;5068601;28;20168;-65
2022/05/15 00:42:46;;;;;;;20.08;5.50;;;;;;;;;;5079697;28;20211;-64
2022/05/15 00:45:13;;;;;;;22.48;6.25;;;;;;;;;;5056620;28;20613;-65
2022/05/15 00:47:40;;;;;;;25.70;5.93;;;;;;;;;;5064863;28;20184;-65
2022/05/15 00:50:09;;;;;;;25.05;5.78;;;;;;;;;;5066019;28;20263;-65
2022/05/15 00:52:40;;;;;;;23.73;6.20;;;;;;;;;;5067918;28;20185;-64
2022/05/15 00:55:36;;;;;;;23.40;5.38;;;;;;;;;;5067377;28;20169;-64
2022/05/15 00:58:13;;;;;;;21.30;5.60;;;;;;;;;;5065675;28;20238;-66
2022/05/15 01:00:40;;;;;;;24.83;5.88;;;;;;;;;;5067672;28;20210;-65
2022/05/15 01:03:16;;;;;;;22.95;5.30;;;;;;;;;;5076971;28;20207;-64
2022/05/15 01:05:45;;;;;;;21.95;5.15;;;;;;;;;;5059540;28;20196;-64
2022/05/15 01:08:11;;;;;;;25.23;5.88;;;;;;;;;;5068176;28;20193;-65
2022/05/15 01:10:41;;;;;;;25.90;5.00;;;;;;;;;;5066097;28;20303;-65
2022/05/15 01:13:07;;;;;;;22.65;5.10;;;;;;;;;;5050986;28;20656;-65
2022/05/15 01:15:33;;;;;;;25.95;5.38;;;;;;;;;;5068076;28;20298;-65
2022/05/15 01:17:58;;;;;;;26.23;5.47;;;;;;;;;;5060900;28;20215;-65
2022/05/15 01:20:26;;;;;;;27.50;5.25;;;;;;;;;;5068171;28;20192;-65
2022/05/15 01:22:52;;;;;;;26.58;6.18;;;;;;;;;;5060740;28;20242;-65
2022/05/15 01:25:21;;;;;;;25.00;5.65;;;;;;;;;;5068394;28;20399;-65
2022/05/15 01:28:21;;;;;;;29.90;5.55;;;;;;;;;;5052877;28;20181;-65
2022/05/15 01:30:49;;;;;;;19.42;5.43;;;;;;;;;;5062023;28;20688;-65
2022/05/15 01:33:15;;;;;;;19.95;5.32;;;;;;;;;;5065428;28;20177;-65
2022/05/15 01:35:40;;;;;;;26.35;5.63;;;;;;;;;;5064509;28;20180;-65
2022/05/15 01:38:06;;;;;;;19.27;5.22;;;;;;;;;;5064082;28;20651;-65
2022/05/15 01:40:33;;;;;;;25.23;5.75;;;;;;;;;;5058309;28;20228;-65
2022/05/15 01:42:59;;;;;;;25.17;5.22;;;;;;;;;;5066197;28;20196;-65
2022/05/15 01:45:25;;;;;;;20.13;5.18;;;;;;;;;;5056049;28;20181;-65
2022/05/15 01:47:50;;;;;;;27.85;5.43;;;;;;;;;;5061753;28;20189;-65
2022/05/15 01:50:16;;;;;;;22.58;5.20;;;;;;;;;;5067468;28;20230;-65
2022/05/15 01:52:42;;;;;;;18.05;6.15;;;;;;;;;;5054545;28;20196;-65
2022/05/15 01:55:09;;;;;;;25.13;5.72;;;;;;;;;;5055407;28;20176;-65
2022/05/15 01:57:34;;;;;;;26.65;5.40;;;;;;;;;;5052928;28;20725;-65
2022/05/15 01:59:59;;;;;;;20.65;5.30;;;;;;;;;;5059100;28;20279;-65
2022/05/15 02:02:25;;;;;;;27.25;5.70;;;;;;;;;;5060339;28;20186;-65
2022/05/15 02:04:50;;;;;;;31.10;5.97;;;;;;;;;;5066545;28;20176;-65
2022/05/15 02:07:15;;;;;;;21.80;5.28;;;;;;;;;;5062360;28;20312;-65
2022/05/15 02:09:41;;;;;;;20.75;5.38;;;;;;;;;;5061061;28;20221;-65
2022/05/15 02:12:07;;;;;;;27.63;5.43;;;;;;;;;;5064444;28;20216;-65
2022/05/15 02:14:32;;;;;;;22.17;5.20;;;;;;;;;;5066006;28;20173;-65
2022/05/15 02:16:58;;;;;;;22.48;5.70;;;;;;;;;;5052999;28;20209;-65
2022/05/15 02:19:23;;;;;;;23.17;4.70;;;;;;;;;;5062296;28;20275;-65
2022/05/15 02:21:48;;;;;;;24.33;6.25;;;;;;;;;;5063137;28;20216;-65
2022/05/15 02:24:14;;;;;;;19.23;4.93;;;;;;;;;;5062194;28;20185;-65
2022/05/15 02:26:40;;;;;;;23.15;6.18;;;;;;;;;;5065112;28;20258;-65
2022/05/15 02:29:06;;;;;;;19.25;5.50;;;;;;;;;;5063226;28;20181;-65
2022/05/15 02:31:32;;;;;;;26.08;5.50;;;;;;;;;;5067600;28;20193;-65
2022/05/15 02:33:58;;;;;;;28.10;6.18;;;;;;;;;;5056391;28;20210;-65
2022/05/15 02:36:24;;;;;;;27.58;6.30;;;;;;;;;;5064302;28;20177;-65
2022/05/15 02:38:50;;;;;;;19.48;6.13;;;;;;;;;;5060558;28;20195;-65
2022/05/15 02:41:15;;;;;;;21.52;6.35;;;;;;;;;;5052365;28;20185;-65
2022/05/15 02:43:40;;;;;;;21.15;5.13;;;;;;;;;;5066895;28;20210;-65
2022/05/15 02:46:06;;;;;;;22.73;5.75;;;;;;;;;;5063425;28;20330;-65
2022/05/15 02:51:15;;;;;;;21.02;5.93;;;;;;;;;;5063836;28;20241;-65
2022/05/15 02:53:43;;;;;;;21.40;5.80;;;;;;;;;;5061157;28;20177;-65
2022/05/15 02:56:13;;;;;;;25.45;6.35;;;;;;;;;;5068190;28;20561;-65
2022/05/15 02:58:38;;;;;;;18.98;6.00;;;;;;;;;;5058434;28;20216;-65
2022/05/15 03:01:04;;;;;;;19.45;5.70;;;;;;;;;;5070210;28;20233;-65
2022/05/15 03:03:30;;;;;;;30.13;6.82;;;;;;;;;;5056798;28;20181;-65
2022/05/15 03:05:56;;;;;;;15.75;5.60;;;;;;;;;;5069207;28;20604;-65
2022/05/15 03:08:21;;;;;;;27.50;6.78;;;;;;;;;;5065090;28;20582;-65
2022/05/15 03:10:47;;;;;;;26.73;6.30;;;;;;;;;;5065333;28;20229;-65
2022/05/15 03:13:12;;;;;;;26.85;6.10;;;;;;;;;;5066661;28;20184;-65
2022/05/15 03:15:38;;;;;;;22.17;6.45;;;;;;;;;;5066624;28;20197;-65
2022/05/15 03:18:04;;;;;;;32.97;6.78;;;;;;;;;;5059242;28;20236;-65
2022/05/15 03:20:29;;;;;;;26.95;6.35;;;;;;;;;;5064725;28;20181;-65
2022/05/15 03:22:55;;;;;;;25.15;6.25;;;;;;;;;;5068185;28;20193;-65
2022/05/15 03:25:21;;;;;;;25.42;6.22;;;;;;;;;;5062501;28;20667;-65
2022/05/15 03:27:46;;;;;;;29.38;6.35;;;;;;;;;;5064040;28;20531;-65
2022/05/15 03:30:13;;;;;;;24.17;6.63;;;;;;;;;;5066904;28;20202;-65
2022/05/15 03:32:38;;;;;;;24.50;5.97;;;;;;;;;;5067189;28;20208;-65
2022/05/15 03:35:05;;;;;;;21.15;6.28;;;;;;;;;;5065062;28;20230;-65
2022/05/15 03:37:31;;;;;;;22.15;5.97;;;;;;;;;;5066305;28;20180;-65
2022/05/15 03:39:56;;;;;;;21.13;6.72;;;;;;;;;;5061731;28;20254;-65
2022/05/15 03:42:24;;;;;;;23.75;6.43;;;;;;;;;;5068094;28;20184;-65
2022/05/15 03:44:50;;;;;;;21.92;6.25;;;;;;;;;;5068603;28;20674;-65
2022/05/15 03:47:15;;;;;;;19.95;6.05;;;;;;;;;;5066175;28;20296;-64
2022/05/15 03:49:40;;;;;;;18.83;6.00;;;;;;;;;;5053213;28;20615;-64
2022/05/15 03:52:06;;;;;;;22.90;6.50;;;;;;;;;;5056641;28;20219;-64
2022/05/15 03:54:31;;;;;;;28.10;6.03;;;;;;;;;;5067975;28;20556;-64
2022/05/15 03:56:57;;;;;;;15.52;5.72;;;;;;;;;;5068390;28;20177;-65
2022/05/15 03:59:38;;;;;;;18.85;5.97;;;;;;;;;;5057100;28;20268;-67
2022/05/15 04:02:05;;;;;;;18.38;6.32;;;;;;;;;;5064187;28;20181;-65
2022/05/15 04:04:32;;;;;;;26.58;6.03;;;;;;;;;;5067457;28;20181;-66
2022/05/15 04:06:58;;;;;;;26.10;6.28;;;;;;;;;;5068008;28;20201;-65
2022/05/15 04:09:24;;;;;;;18.45;6.00;;;;;;;;;;5065646;28;20573;-65
2022/05/15 04:11:50;;;;;;;15.75;5.90;;;;;;;;;;5063086;28;20268;-65
2022/05/15 04:14:15;;;;;;;18.92;5.78;;;;;;;;;;5058049;28;20268;-65
2022/05/15 04:16:41;;;;;;;23.98;6.38;;;;;;;;;;5064169;28;20188;-65
2022/05/15 04:19:07;;;;;;;20.10;6.30;;;;;;;;;;5061030;28;20280;-66
2022/05/15 04:21:37;;;;;;;23.95;6.68;;;;;;;;;;5067812;28;20165;-65
2022/05/15 04:24:07;;;;;;;16.73;5.95;;;;;;;;;;5061139;28;20177;-65
2022/05/15 04:26:33;;;;;;;22.75;6.05;;;;;;;;;;5066817;28;20197;-65
2022/05/15 04:28:59;;;;;;;21.40;6.15;;;;;;;;;;5065564;28;20680;-65
2022/05/15 04:31:24;;;;;;;21.00;6.10;;;;;;;;;;5051813;28;20676;-65
2022/05/15 04:33:50;;;;;;;25.80;6.32;;;;;;;;;;5062202;28;20275;-65
2022/05/15 04:36:15;;;;;;;16.52;5.63;;;;;;;;;;5067994;28;20371;-65
2022/05/15 04:38:41;;;;;;;23.75;6.65;;;;;;;;;;5062465;28;20185;-66
2022/05/15 04:41:06;;;;;;;20.30;5.85;;;;;;;;;;5063225;28;20280;-66
2022/05/15 04:43:32;;;;;;;19.50;5.13;;;;;;;;;;5077629;28;20268;-65
2022/05/15 04:45:57;;;;;;;19.00;5.78;;;;;;;;;;5060958;28;20236;-64
2022/05/15 04:48:22;;;;;;;21.88;5.60;;;;;;;;;;5064741;28;20185;-64
2022/05/15 04:50:48;;;;;;;19.77;6.05;;;;;;;;;;5062017;28;20264;-65
2022/05/15 04:53:13;;;;;;;22.25;5.55;;;;;;;;;;5060515;28;20211;-64
2022/05/15 04:55:38;;;;;;;25.55;6.10;;;;;;;;;;5067124;28;20185;-64
2022/05/15 04:58:04;;;;;;;15.35;5.10;;;;;;;;;;5067202;28;20561;-64
2022/05/15 05:00:30;;;;;;;23.58;5.68;;;;;;;;;;5059815;28;20616;-64
2022/05/15 05:02:55;;;;;;;20.85;5.05;;;;;;;;;;5065190;28;20732;-65
2022/05/15 05:05:21;;;;;;;16.63;5.22;;;;;;;;;;5063421;28;20219;-64
2022/05/15 05:07:46;;;;;;;18.52;5.53;;;;;;;;;;5061330;28;20211;-64
2022/05/15 05:10:13;;;;;;;19.60;5.35;;;;;;;;;;5062078;28;20327;-64
2022/05/15 05:12:39;;;;;;;24.73;5.80;;;;;;;;;;5066369;28;20169;-65
2022/05/15 05:15:07;;;;;;;19.50;5.57;;;;;;;;;;5062610;28;20189;-64
2022/05/15 05:17:32;;;;;;;13.45;4.78;;;;;;;;;;5062381;28;20712;-64
2022/05/15 05:19:58;;;;;;;15.73;4.70;;;;;;;;;;5065473;28;20275;-64
2022/05/15 05:22:23;;;;;;;17.38;5.05;;;;;;;;;;5063435;28;20188;-65
2022/05/15 05:24:48;;;;;;;14.07;4.45;;;;;;;;;;5065359;28;20177;-65
2022/05/15 05:27:14;;;;;;;20.83;4.80;;;;;;;;;;5067506;28;20219;-64
2022/05/15 05:29:39;;;;;;;22.48;5.32;;;;;;;;;;5064240;28;20262;-65
2022/05/15 05:32:05;;;;;;;16.05;4.75;;;;;;;;;;5065341;28;20196;-65
2022/05/15 05:34:31;;;;;;;16.45;5.10;;;;;;;;;;5061664;28;20676;-65
2022/05/15 05:36:56;;;;;;;17.27;4.70;;;;;;;;;;5064043;28;20811;-64
2022/05/15 05:39:21;;;;;;;20.65;5.28;;;;;;;;;;5061514;28;20184;-64
2022/05/15 05:41:47;;;;;;;13.93;4.32;;;;;;;;;;5056206;28;20259;-64
2022/05/15 05:44:13;;;;;;;14.75;4.03;;;;;;;;;;5071145;28;20235;-65
2022/05/15 05:46:38;;;;;;;16.20;5.00;;;;;;;;;;5063793;28;20197;-65
2022/05/15 05:49:03;;;;;;;18.75;4.35;;;;;;;;;;5059552;28;20603;-64
2022/05/15 05:51:29;;;;;;;12.65;4.00;;;;;;;;;;5066961;28;20187;-64
2022/05/15 05:53:54;;;;;;;15.95;4.20;;;;;;;;;;5059078;28;20180;-64
2022/05/15 05:56:19;;;;;;;12.85;3.95;;;;;;;;;;5066760;28;20173;-64
2022/05/15 05:58:45;;;;;;;12.50;4.45;;;;;;;;;;5063749;28;20184;-64
2022/05/15 06:01:10;;;;;;;16.45;4.60;;;;;;;;;;5061484;28;20165;-64
2022/05/15 06:06:20;;;;;;;12.50;3.72;;;;;;;;;;5062026;28;20227;-64
2022/05/15 06:08:46;;;;;;;11.07;4.43;;;;;;;;;;5081348;28;20586;-64
2022/05/15 06:11:12;;;;;;;20.75;4.82;;;;;;;;;;5067064;28;20286;-64
2022/05/15 06:13:39;;;;;;;13.38;4.50;;;;;;;;;;5063783;28;20264;-64
2022/05/15 06:16:05;;;;;;;14.18;4.95;;;;;;;;;;5058609;28;20302;-64
2022/05/15 06:18:31;;;;;;;19.40;4.72;;;;;;;;;;5066407;28;20259;-64
2022/05/15 06:20:57;;;;;;;13.70;3.80;;;;;;;;;;5066937;28;20246;-64
2022/05/15 06:23:23;;;;;;;14.43;4.40;;;;;;;;;;5065796;28;20205;-64
2022/05/15 06:25:49;;;;;;;15.18;4.70;;;;;;;;;;5067872;28;20203;-64
2022/05/15 06:28:14;;;;;;;11.60;3.90;;;;;;;;;;5067992;28;20184;-64
2022/05/15 06:30:39;;;;;;;12.48;4.80;;;;;;;;;;5068039;28;20212;-64
2022/05/15 06:33:06;;;;;;;14.35;4.32;;;;;;;;;;5068844;28;20181;-64
2022/05/15 06:35:31;;;;;;;14.50;4.50;;;;;;;;;;5070193;28;20192;-64
2022/05/15 06:38:00;;;;;;;15.73;4.53;;;;;;;;;;5069658;28;20172;-64
2022/05/15 06:40:26;;;;;;;15.25;4.90;;;;;;;;;;5065690;28;20208;-64
2022/05/15 06:42:52;;;;;;;10.00;4.75;;;;;;;;;;5068851;28;20197;-64
2022/05/15 06:45:17;;;;;;;10.70;4.25;;;;;;;;;;5068622;28;20528;-64
2022/05/15 06:47:42;;;;;;;17.35;5.20;;;;;;;;;;5068990;28;20815;-64
2022/05/15 06:50:09;;;;;;;19.40;5.80;;;;;;;;;;5068800;28;20200;-64
2022/05/15 06:52:36;;;;;;;13.75;5.15;;;;;;;;;;5066639;28;20188;-64
2022/05/15 06:55:04;;;;;;;18.25;5.95;;;;;;;;;;5064367;28;20399;-64
2022/05/15 06:57:30;;;;;;;23.20;6.03;;;;;;;;;;5065775;28;20181;-65
2022/05/15 07:00:00;;;;;;;14.25;4.93;;;;;;;;;;5059808;28;20214;-65
2022/05/15 07:02:27;;;;;;;21.00;5.82;;;;;;;;;;5063702;28;20196;-66
2022/05/15 07:04:53;;;;;;;14.80;5.40;;;;;;;;;;5067114;28;20709;-65
2022/05/15 07:07:19;;;;;;;14.18;5.50;;;;;;;;;;5067493;28;20200;-66
2022/05/15 07:09:45;;;;;;;15.80;5.30;;;;;;;;;;5067001;28;20600;-65
2022/05/15 07:12:10;;;;;;;21.95;5.47;;;;;;;;;;5068045;28;20200;-65
2022/05/15 07:14:36;;;;;;;10.35;4.30;;;;;;;;;;5070663;28;20176;-65
2022/05/15 07:17:02;;;;;;;15.52;4.38;;;;;;;;;;5067253;28;20192;-65
2022/05/15 07:19:27;;;;;;;13.00;4.07;;;;;;;;;;5065942;28;20688;-65
2022/05/15 07:21:52;;;;;;;14.60;4.25;;;;;;;;;;5064323;28;20184;-65
2022/05/15 07:24:18;;;;;;;16.17;4.35;;;;;;;;;;4365923;28;10000692;-65
2022/05/15 07:26:46;;;;;;;14.95;3.92;;;;;;;;;;5064499;28;20639;-65
2022/05/15 07:29:12;;;;;;;14.13;4.18;;;;;;;;;;5063971;28;20180;-65
2022/05/15 07:31:38;;;;;;;16.25;4.20;;;;;;;;;;5064586;28;20199;-65
2022/05/15 07:34:03;;;;;;;16.75;4.00;;;;;;;;;;5065090;28;20524;-65
2022/05/15 07:36:29;;;;;;;10.00;4.05;;;;;;;;;;5063108;28;20173;-68
2022/05/15 07:38:54;;;;;;;16.73;4.43;;;;;;;;;;5062438;28;20459;-66
2022/05/15 07:41:20;;;;;;;12.80;3.42;;;;;;;;;;5062952;28;20218;-67
2022/05/15 07:43:45;;;;;;;17.02;4.40;;;;;;;;;;5063244;28;20185;-65
2022/05/15 07:46:11;;;;;;;15.05;4.22;;;;;;;;;;5063292;28;20680;-65
2022/05/15 07:48:36;;;;;;;12.85;3.55;;;;;;;;;;5064791;28;20276;-66
2022/05/15 07:51:01;;;;;;;14.60;4.13;;;;;;;;;;5063631;28;20652;-66
2022/05/15 07:53:27;;;;;;;14.25;4.13;;;;;;;;;;5065891;28;20184;-65
2022/05/15 07:55:59;;;;;;;13.05;4.13;;;;;;;;;;5060878;28;20173;-66
2022/05/15 07:58:25;;;;;;;21.23;4.70;;;;;;;;;;5063690;28;20242;-66
2022/05/15 08:00:53;;;;;;;12.95;3.85;;;;;;;;;;5063052;28;20184;-68
2022/05/15 08:03:19;;;;;;;15.20;4.25;;;;;;;;;;5064138;28;20403;-64
2022/05/15 08:08:28;;;;;;;14.35;3.55;;;;;;;;;;5059544;28;20187;-66
2022/05/15 08:10:53;;;;;;;15.80;4.38;;;;;;;;;;5056460;28;20232;-65
2022/05/15 08:13:24;;;;;;;11.82;3.72;;;;;;;;;;5063952;28;20253;-65
2022/05/15 08:15:50;;;;;;;12.55;3.83;;;;;;;;;;5065070;28;20188;-65
2022/05/15 08:23:49;;;;;;;11.38;3.55;;;;;;;;;;5065372;28;20598;-65
2022/05/15 08:26:14;;;;;;;13.98;3.80;;;;;;;;;;5066494;28;20196;-65
2022/05/15 08:28:40;;;;;;;14.15;3.67;;;;;;;;;;5068009;28;20199;-65
2022/05/15 08:31:07;;;;;;;11.30;3.38;;;;;;;;;;5067910;28;20208;-65
2022/05/15 08:33:33;;;;;;;11.40;3.55;;;;;;;;;;5068934;28;20183;-65
2022/05/15 08:35:59;;;;;;;16.48;4.03;;;;;;;;;;5063213;28;20538;-65
2022/05/15 08:38:25;;;;;;;11.60;3.20;;;;;;;;;;5062606;28;20261;-65
2022/05/15 08:41:31;;;;;;;14.20;3.58;;;;;;;;;;5066548;28;20184;-65
2022/05/15 08:44:10;;;;;;;12.30;3.55;;;;;;;;;;5057408;28;20196;-65
2022/05/15 08:46:51;;;;;;;13.45;4.07;;;;;;;;;;5066211;28;20211;-65
2022/05/15 08:49:38;;;;;;;14.30;3.35;;;;;;;;;;5061868;28;20196;-65
2022/05/15 08:52:22;;;;;;;12.77;3.47;;;;;;;;;;5066491;28;20252;-65
2022/05/15 08:55:01;;;;;;;14.07;3.40;;;;;;;;;;5066144;28;20176;-65
2022/05/15 08:58:06;;;;;;;14.55;4.28;;;;;;;;;;5065244;28;20181;-65
2022/05/15 09:00:44;;;;;;;12.40;3.53;;;;;;;;;;5028511;28;20232;-67
2022/05/15 09:03:25;;;;;;;14.20;3.97;;;;;;;;;;5065199;28;20180;-67
2022/05/15 09:05:57;;;;;;;14.57;3.30;;;;;;;;;;5064804;28;20204;-64
2022/05/15 09:08:40;;;;;;;10.38;2.88;;;;;;;;;;5065292;28;21333;-65
2022/05/15 09:11:08;;;;;;;9.48;3.13;;;;;;;;;;5063431;28;20262;-65
2022/05/15 09:13:54;;;;;;;15.05;3.10;;;;;;;;;;5064054;28;20192;-66
2022/05/15 09:16:24;;;;;;;15.25;3.15;;;;;;;;;;5064525;28;20263;-65
2022/05/15 09:18:50;;;;;;;12.55;3.90;;;;;;;;;;5079415;28;20215;-65
2022/05/15 09:21:17;;;;;;;10.68;2.95;;;;;;;;;;5065941;28;20204;-67
2022/05/15 09:23:49;;;;;;;13.43;3.80;;;;;;;;;;5063214;28;20699;-65
2022/05/15 09:26:20;;;;;;;14.88;3.55;;;;;;;;;;5065257;28;20227;-66
2022/05/15 09:28:54;;;;;;;15.27;2.92;;;;;;;;;;5064818;28;20180;-66
2022/05/15 09:31:30;;;;;;;11.88;3.15;;;;;;;;;;5065929;28;20287;-65
2022/05/15 09:34:01;;;;;;;9.85;3.63;;;;;;;;;;5062546;28;20179;-66
2022/05/15 09:36:35;;;;;;;11.85;3.95;;;;;;;;;;5065500;28;20639;-68
2022/05/15 09:39:40;;;;;;;12.07;3.42;;;;;;;;;;5062312;28;20757;-66
2022/05/15 09:45:07;;;;;;;13.07;3.35;;;;;;;;;;5065505;28;20268;-66
2022/05/15 09:47:37;;;;;;;12.63;3.28;;;;;;;;;;5064381;28;20216;-65
2022/05/15 09:50:05;;;;;;;13.25;3.50;;;;;;;;;;5062003;28;20208;-65
2022/05/15 09:52:38;;;;;;;13.60;3.58;;;;;;;;;;5063184;28;20192;-65
2022/05/15 09:55:25;;;;;;;10.45;2.80;;;;;;;;;;5065125;28;20176;-66
2022/05/15 09:57:57;;;;;;;13.65;3.10;;;;;;;;;;5065792;28;20207;-66
2022/05/15 10:00:24;;;;;;;10.02;3.03;;;;;;;;;;5067279;28;20185;-65
2022/05/15 10:02:52;;;;;;;14.27;3.20;;;;;;;;;;5068420;28;20537;-67
2022/05/15 10:05:20;;;;;;;12.60;3.28;;;;;;;;;;5069790;28;20596;-66
2022/05/15 10:08:09;;;;;;;17.30;3.78;;;;;;;;;;5067665;28;20284;-67
2022/05/15 10:10:43;;;;;;;10.57;3.15;;;;;;;;;;5066601;28;20312;-66
2022/05/15 10:13:18;;;;;;;14.65;3.45;;;;;;;;;;5067307;28;20275;-68
2022/05/15 10:15:48;;;;;;;11.32;3.13;;;;;;;;;;5068415;28;20192;-66
2022/05/15 10:18:22;;;;;;;10.40;3.03;;;;;;;;;;4366415;28;10000722;-66
2022/05/15 10:20:50;;;;;;;12.20;3.50;;;;;;;;;;5064653;28;20189;-66
2022/05/15 10:23:29;;;;;;;10.00;2.90;;;;;;;;;;5066456;28;20485;-72
2022/05/15 10:26:07;;;;;;;15.35;3.28;;;;;;;;;;5065882;28;20212;-66
2022/05/15 10:28:42;;;;;;;11.40;2.85;;;;;;;;;;5065762;28;20212;-65
2022/05/15 10:31:10;;;;;;;15.30;3.47;;;;;;;;;;5063766;28;20295;-68
2022/05/15 10:33:38;;;;;;;11.55;3.45;;;;;;;;;;5067832;28;20183;-67
2022/05/15 10:36:27;;;;;;;14.70;2.60;;;;;;;;;;5066902;28;20553;-65
2022/05/15 10:39:02;;;;;;;8.65;2.38;;;;;;;;;;5061433;28;20192;-65
2022/05/15 10:42:07;;;;;;;13.48;3.72;;;;;;;;;;5059909;28;20389;-67
2022/05/15 10:44:47;;;;;;;9.73;3.08;;;;;;;;;;5066005;28;20188;-66
2022/05/15 10:47:17;;;;;;;11.68;3.05;;;;;;;;;;5062614;28;20204;-66
2022/05/15 10:50:03;;;;;;;19.42;3.20;;;;;;;;;;5064960;28;20303;-66
2022/05/15 10:59:14;;;;;;;11.07;3.15;;;;;;;;;;5065401;28;20227;-66
2022/05/15 11:01:52;;;;;;;13.68;3.17;;;;;;;;;;5049738;28;20797;-66
2022/05/15 11:04:34;;;;;;;13.80;3.60;;;;;;;;;;5064362;28;20636;-66
2022/05/15 11:07:25;;;;;;;9.77;3.08;;;;;;;;;;5056999;28;20203;-66
2022/05/15 11:09:58;;;;;;;14.75;3.17;;;;;;;;;;5063977;28;20278;-68
2022/05/15 11:12:48;;;;;;;9.13;2.83;;;;;;;;;;5060625;28;20172;-67
2022/05/15 11:15:38;;;;;;;12.50;3.70;;;;;;;;;;5059868;28;20185;-67
2022/05/15 11:18:42;;;;;;;11.20;3.00;;;;;;;;;;5069890;28;20177;-66
2022/05/15 11:21:13;;;;;;;7.38;2.80;;;;;;;;;;5043937;28;20287;-68
2022/05/15 11:23:44;;;;;;;15.02;3.10;;;;;;;;;;5062033;28;20195;-66
2022/05/15 11:26:45;;;;;;;10.32;2.65;;;;;;;;;;5061942;28;20232;-66
2022/05/15 11:29:13;;;;;;;12.30;3.30;;;;;;;;;;5040131;28;20204;-66
2022/05/15 11:31:50;;;;;;;12.27;3.17;;;;;;;;;;5067074;28;20204;-66
2022/05/15 11:34:16;;;;;;;10.93;2.90;;;;;;;;;;5066931;28;20168;-66
2022/05/15 11:36:44;;;;;;;10.32;2.78;;;;;;;;;;5065065;28;20254;-66
2022/05/15 11:39:12;;;;;;;13.35;3.45;;;;;;;;;;5063773;28;20169;-67
2022/05/15 11:42:10;;;;;;;6.38;2.20;;;;;;;;;;5067589;28;20216;-67
2022/05/15 11:44:44;;;;;;;12.50;2.90;;;;;;;;;;5066578;28;20177;-67
2022/05/15 11:47:22;;;;;;;8.27;2.70;;;;;;;;;;5060501;28;20207;-67
2022/05/15 11:50:20;;;;;;;7.28;2.70;;;;;;;;;;5064390;28;20574;-67
2022/05/15 11:52:55;;;;;;;12.35;2.83;;;;;;;;;;5049489;28;20257;-67
2022/05/15 11:55:35;;;;;;;9.07;2.53;;;;;;;;;;5057804;28;20195;-69
2022/05/15 11:58:14;;;;;;;10.18;2.97;;;;;;;;;;5066365;28;20215;-67
2022/05/15 12:00:42;;;;;;;10.00;2.70;;;;;;;;;;5065780;28;20199;-67
2022/05/15 12:03:29;;;;;;;8.85;2.80;;;;;;;;;;5060327;28;20195;-68
2022/05/15 12:06:23;;;;;;;7.38;2.55;;;;;;;;;;5049663;28;20173;-67
2022/05/15 12:08:52;;;;;;;13.02;2.42;;;;;;;;;;5053455;28;20556;-67
2022/05/15 12:11:17;;;;;;;9.95;2.72;;;;;;;;;;5066064;28;20176;-67
2022/05/15 12:13:43;;;;;;;10.65;2.63;;;;;;;;;;5066195;28;20269;-67
2022/05/15 12:16:25;;;;;;;12.40;2.95;;;;;;;;;;5068224;28;20196;-67
2022/05/15 12:18:56;;;;;;;11.80;2.78;;;;;;;;;;5065079;28;20709;-67
2022/05/15 12:21:31;;;;;;;8.48;2.67;;;;;;;;;;5067794;28;20646;-69
2022/05/15 12:26:52;;;;;;;11.90;2.78;;;;;;;;;;5068235;28;20334;-70
2022/05/15 12:29:29;;;;;;;9.18;2.50;;;;;;;;;;5065955;28;20179;-67
2022/05/15 12:31:56;;;;;;;12.02;3.25;;;;;;;;;;5058485;28;20547;-67
2022/05/15 12:34:38;;;;;;;13.27;2.70;;;;;;;;;;5067683;28;20192;-68
2022/05/15 12:37:09;;;;;;;7.60;2.60;;;;;;;;;;5064554;28;20184;-67
2022/05/15 12:39:38;;;;;;;10.98;2.28;;;;;;;;;;5057261;28;20181;-67
2022/05/15 12:42:12;;;;;;;7.30;2.00;;;;;;;;;;5064749;28;20527;-67
2022/05/15 12:44:39;;;;;;;7.15;2.20;;;;;;;;;;5061532;28;20193;-67
2022/05/15 12:47:09;;;;;;;8.52;2.47;;;;;;;;;;5064452;28;20204;-66
2022/05/15 12:49:43;;;;;;;8.77;2.50;;;;;;;;;;5064216;28;20183;-67
2022/05/15 12:52:18;;;;;;;9.27;2.75;;;;;;;;;;5064003;28;20501;-66
2022/05/15 12:54:53;;;;;;;6.88;2.22;;;;;;;;;;5062896;28;20185;-68
2022/05/15 12:57:18;;;;;;;7.63;2.55;;;;;;;;;;5066548;28;20172;-68
2022/05/15 12:59:47;;;;;;;8.20;2.75;;;;;;;;;;5059998;28;20184;-68
2022/05/15 13:02:35;;;;;;;7.53;2.47;;;;;;;;;;5081167;28;20550;-67
2022/05/15 13:05:04;;;;;;;10.43;3.03;;;;;;;;;;5066828;28;20180;-67
2022/05/15 13:07:37;;;;;;;11.60;2.92;;;;;;;;;;5056272;28;20675;-68
2022/05/15 13:10:09;;;;;;;10.00;2.35;;;;;;;;;;5061122;28;20720;-68
2022/05/15 13:12:52;;;;;;;13.25;3.17;;;;;;;;;;5064167;28;20192;-67
2022/05/15 13:15:26;;;;;;;8.13;2.92;;;;;;;;;;5057301;28;20212;-67
2022/05/15 13:17:53;;;;;;;9.38;2.28;;;;;;;;;;5052870;28;20550;-67
2022/05/15 13:20:21;;;;;;;11.05;2.90;;;;;;;;;;5060109;28;20685;-71
2022/05/15 13:22:47;;;;;;;9.95;2.95;;;;;;;;;;5078248;28;20205;-74
2022/05/15 13:25:23;;;;;;;8.15;2.63;;;;;;;;;;5066942;28;20209;-67
2022/05/15 13:27:49;;;;;;;7.70;2.25;;;;;;;;;;5060251;28;20281;-67
2022/05/15 13:30:20;;;;;;;7.88;2.65;;;;;;;;;;5061136;28;20640;-66
2022/05/15 13:32:49;;;;;;;11.77;2.38;;;;;;;;;;5057530;28;20281;-67
2022/05/15 13:35:16;;;;;;;9.50;2.38;;;;;;;;;;5067034;28;20260;-68
2022/05/15 13:37:46;;;;;;;10.55;2.83;;;;;;;;;;5057386;28;20185;-69
2022/05/15 13:45:57;;;;;;;7.70;2.40;;;;;;;;;;5067237;28;20729;-67
2022/05/15 13:48:22;;;;;;;8.52;2.78;;;;;;;;;;5052456;28;20176;-67
2022/05/15 13:50:50;;;;;;;9.18;2.70;;;;;;;;;;5066570;28;20184;-67
2022/05/15 13:53:40;;;;;;;8.23;2.80;;;;;;;;;;5066083;28;20192;-67
2022/05/15 13:56:16;;;;;;;9.27;2.65;;;;;;;;;;5066914;28;20226;-67
2022/05/15 13:58:46;;;;;;;11.45;2.47;;;;;;;;;;5065752;28;20233;-67
2022/05/15 14:01:27;;;;;;;8.88;2.53;;;;;;;;;;5065522;28;20180;-67
2022/05/15 14:03:55;;;;;;;8.55;2.45;;;;;;;;;;5064077;28;20203;-67
2022/05/15 14:06:32;;;;;;;8.57;2.75;;;;;;;;;;5066233;28;20849;-67
2022/05/15 14:09:13;;;;;;;11.38;3.22;;;;;;;;;;5064156;28;20254;-67
2022/05/15 14:11:50;;;;;;;10.38;2.88;;;;;;;;;;5064253;28;20636;-70
2022/05/15 14:14:16;;;;;;;7.93;2.58;;;;;;;;;;5066703;28;20187;-68
2022/05/15 14:16:42;;;;;;;8.00;2.55;;;;;;;;;;5063942;28;20694;-67
2022/05/15 14:19:18;;;;;;;8.40;2.60;;;;;;;;;;5065730;28;20185;-67
2022/05/15 14:21:59;;;;;;;11.35;3.20;;;;;;;;;;5065400;28;20212;-69
2022/05/15 14:24:26;;;;;;;12.55;3.05;;;;;;;;;;5067345;28;20195;-66
2022/05/15 14:26:51;;;;;;;7.38;2.72;;;;;;;;;;5064046;28;20196;-67
2022/05/15 14:29:17;;;;;;;10.10;2.53;;;;;;;;;;5065619;28;20177;-68
2022/05/15 14:31:43;;;;;;;7.60;2.58;;;;;;;;;;5066300;28;20788;-67
2022/05/15 14:34:09;;;;;;;7.47;2.20;;;;;;;;;;5065048;28;20176;-68
2022/05/15 14:36:34;;;;;;;5.97;2.38;;;;;;;;;;5066189;28;20545;-67
2022/05/15 14:38:59;;;;;;;10.88;2.70;;;;;;;;;;5065849;28;20181;-69
2022/05/15 14:41:26;;;;;;;11.60;3.05;;;;;;;;;;5065976;28;20181;-69
2022/05/15 14:43:52;;;;;;;9.68;2.63;;;;;;;;;;5066624;28;20264;-68
2022/05/15 14:46:23;;;;;;;7.20;2.50;;;;;;;;;;5068622;28;20291;-67
2022/05/15 14:48:49;;;;;;;6.15;2.22;;;;;;;;;;5068059;28;20668;-67
2022/05/15 14:51:19;;;;;;;10.18;2.75;;;;;;;;;;5067676;28;20177;-69
2022/05/15 14:53:45;;;;;;;10.10;2.50;;;;;;;;;;5068256;28;20275;-67
2022/05/15 14:56:11;;;;;;;7.38;2.60;;;;;;;;;;5069190;28;20317;-67
2022/05/15 14:58:51;;;;;;;5.97;2.60;;;;;;;;;;5065440;28;20176;-67
2022/05/15 15:01:18;;;;;;;11.20;3.03;;;;;;;;;;5067828;28;20180;-67
2022/05/15 15:03:44;;;;;;;10.32;2.40;;;;;;;;;;5068020;28;20660;-68
2022/05/15 15:06:10;;;;;;;5.78;2.47;;;;;;;;;;5068840;28;20212;-68
2022/05/15 15:08:35;;;;;;;7.57;2.78;;;;;;;;;;5065314;28;20287;-68
2022/05/15 15:11:08;;;;;;;11.13;2.53;;;;;;;;;;5067562;28;20421;-68
2022/05/15 15:13:34;;;;;;;14.25;2.92;;;;;;;;;;5066075;28;20185;-67
2022/05/15 15:15:59;;;;;;;12.23;2.90;;;;;;;;;;5067027;28;20541;-68
2022/05/15 15:18:27;;;;;;;10.25;3.10;;;;;;;;;;5066458;28;20217;-69